createdAt,value
2022-12-03T00:01:24.899Z,101050.63
2022-12-03T00:04:28.185Z,101053.84
2022-12-03T00:07:31.036Z,101051.59
2022-12-03T00:10:33.737Z,101055.13
2022-12-03T00:13:37.822Z,101059.38
2022-12-03T00:16:40.601Z,101066.09
2022-12-03T00:19:43.329Z,101063.97
2022-12-03T00:22:46.154Z,101077.72
2022-12-03T00:25:48.916Z,101075.78
2022-12-03T00:28:54.846Z,101073.91
2022-12-03T00:31:57.592Z,101080.28
2022-12-03T00:35:00.361Z,101085.50
2022-12-03T00:38:03.133Z,101082.09
2022-12-03T00:41:06.013Z,101081.53
2022-12-03T00:44:12.012Z,101088.38
2022-12-03T00:47:14.821Z,101096.63
2022-12-03T00:50:17.805Z,101105.53
2022-12-03T00:53:20.585Z,101102.81
2022-12-03T00:56:23.328Z,101099.38
2022-12-03T00:59:27.693Z,101102.03
2022-12-03T01:02:30.482Z,101108.22
2022-12-03T01:05:33.220Z,101113.53
2022-12-03T01:08:36.038Z,101108.22
2022-12-03T01:11:38.747Z,101110.69
2022-12-03T01:14:42.922Z,101111.84
2022-12-03T01:17:45.749Z,101121.78
2022-12-03T01:20:48.520Z,101121.34
2022-12-03T01:23:51.315Z,101118.03
2022-12-03T01:26:55.867Z,101125.50
2022-12-03T01:29:59.962Z,101127.75
2022-12-03T01:33:01.766Z,101131.78
2022-12-03T01:36:04.692Z,101127.69
2022-12-03T01:39:07.494Z,101130.47
2022-12-03T01:42:13.069Z,101130.09
2022-12-03T01:45:22.306Z,101137.66
2022-12-03T01:48:25.227Z,101137.94
2022-12-03T01:51:27.981Z,101126.72
2022-12-03T01:54:34.943Z,101137.59
2022-12-03T01:57:42.140Z,101143.50
2022-12-03T02:00:46.278Z,101141.06
2022-12-03T02:03:49.053Z,101159.13
2022-12-03T02:06:51.950Z,101157.66
2022-12-03T02:09:55.263Z,101153.47
2022-12-03T02:12:59.342Z,101151.94
2022-12-03T02:16:04.309Z,101170.69
2022-12-03T02:19:11.307Z,101167.38
2022-12-03T02:22:18.054Z,101170.41
2022-12-03T02:25:24.262Z,101181.06
2022-12-03T02:28:27.004Z,101177.09
2022-12-03T02:31:29.977Z,101180.78
2022-12-03T02:34:36.985Z,101182.69
2022-12-03T02:37:39.790Z,101192.22
2022-12-03T02:40:44.963Z,101195.88
2022-12-03T02:43:47.706Z,101191.81
2022-12-03T02:46:50.506Z,101196.81
2022-12-03T02:49:53.771Z,101205.75
2022-12-03T02:52:57.354Z,101195.75
2022-12-03T02:56:02.835Z,101200.13
2022-12-03T02:59:06.914Z,101198.66
2022-12-03T03:02:11.648Z,101192.59
2022-12-03T03:05:16.312Z,101207.63
2022-12-03T03:08:19.847Z,101202.09
2022-12-03T03:11:24.292Z,101211.78
2022-12-03T03:14:27.028Z,101217.88
2022-12-03T03:17:29.814Z,101219.63
2022-12-03T03:20:32.607Z,101219.41
2022-12-03T03:23:35.425Z,101215.91
2022-12-03T03:26:39.607Z,101213.91
2022-12-03T03:29:42.391Z,101219.03
2022-12-03T03:32:45.196Z,101223.50
2022-12-03T03:35:49.433Z,101220.09
2022-12-03T03:38:52.141Z,101226.06
2022-12-03T03:41:56.306Z,101220.09
2022-12-03T03:44:59.500Z,101220.94
2022-12-03T03:48:02.618Z,101233.13
2022-12-03T03:51:09.607Z,101228.72
2022-12-03T03:54:12.578Z,101237.69
2022-12-03T03:57:16.891Z,101238.25
2022-12-03T04:00:20.122Z,101241.88
2022-12-03T04:03:22.941Z,101241.97
2022-12-03T04:06:25.748Z,101249.53
2022-12-03T04:09:28.569Z,101244.44
2022-12-03T04:12:50.403Z,101256.03
2022-12-03T04:15:53.197Z,101252.31
2022-12-03T04:18:56.053Z,101261.38
2022-12-03T04:22:16.152Z,101270.22
2022-12-03T04:25:32.846Z,101270.00
2022-12-03T04:28:52.004Z,101262.97
2022-12-03T04:32:12.505Z,101273.47
2022-12-03T04:35:32.923Z,101278.19
2022-12-03T04:38:35.721Z,101272.63
2022-12-03T04:41:38.501Z,101273.91
2022-12-03T04:44:42.660Z,101288.38
2022-12-03T04:47:45.419Z,101296.19
2022-12-03T04:50:48.207Z,101298.19
2022-12-03T04:53:50.982Z,101294.78
2022-12-03T04:56:53.798Z,101306.09
2022-12-03T04:59:57.929Z,101316.97
2022-12-03T05:03:00.758Z,101316.09
2022-12-03T05:06:04.143Z,101316.47
2022-12-03T05:09:06.833Z,101309.72
2022-12-03T05:12:09.688Z,101318.38
2022-12-03T05:15:13.814Z,101330.84
2022-12-03T05:18:16.712Z,101321.97
2022-12-03T05:21:19.450Z,101330.53
2022-12-03T05:24:22.225Z,101329.59
2022-12-03T05:27:25.695Z,101329.78
2022-12-03T05:30:29.828Z,101340.63
2022-12-03T05:33:32.628Z,101346.66
2022-12-03T05:36:35.421Z,101348.34
2022-12-03T05:39:38.234Z,101352.53
2022-12-03T05:42:57.129Z,101340.47
2022-12-03T05:46:01.379Z,101356.25
2022-12-03T05:49:04.153Z,101357.94
2022-12-03T05:52:06.977Z,101352.09
2022-12-03T05:55:10.141Z,101348.25
2022-12-03T05:58:13.077Z,101356.06
2022-12-03T06:01:17.221Z,101357.94
2022-12-03T06:04:19.991Z,101359.59
2022-12-03T06:07:22.726Z,101367.69
2022-12-03T06:10:26.375Z,101373.94
2022-12-03T06:13:29.158Z,101377.28
2022-12-03T06:16:33.454Z,101376.63
2022-12-03T06:19:36.222Z,101378.16
2022-12-03T06:22:39.028Z,101371.09
2022-12-03T06:25:41.813Z,101379.22
2022-12-03T06:28:46.489Z,101381.78
2022-12-03T06:31:50.601Z,101387.84
2022-12-03T06:34:53.526Z,101384.44
2022-12-03T06:37:56.357Z,101386.16
2022-12-03T06:40:59.179Z,101388.16
2022-12-03T06:44:01.928Z,101389.94
2022-12-03T06:47:06.097Z,101388.06
2022-12-03T06:50:09.606Z,101389.56
2022-12-03T06:53:12.295Z,101396.81
2022-12-03T06:56:17.814Z,101390.53
2022-12-03T06:59:22.902Z,101401.28
2022-12-03T07:02:27.136Z,101398.53
2022-12-03T07:05:29.942Z,101391.47
2022-12-03T07:08:32.685Z,101398.53
2022-12-03T07:11:40.532Z,101405.66
2022-12-03T07:14:43.443Z,101385.09
2022-12-03T07:17:47.533Z,101398.63
2022-12-03T07:20:50.317Z,101407.28
2022-12-03T07:23:53.070Z,101409.00
2022-12-03T07:26:55.959Z,101413.78
2022-12-03T07:29:58.795Z,101415.19
2022-12-03T07:33:02.911Z,101410.91
2022-12-03T07:36:05.729Z,101404.72
2022-12-03T07:39:08.586Z,101415.84
2022-12-03T07:42:11.379Z,101417.75
2022-12-03T07:45:14.121Z,101414.25
2022-12-03T07:48:18.302Z,101420.22
2022-12-03T07:51:21.018Z,101418.81
2022-12-03T07:54:24.214Z,101423.94
2022-12-03T07:57:27.035Z,101420.44
2022-12-03T08:00:29.909Z,101427.75
2022-12-03T08:03:34.188Z,101437.00
2022-12-03T08:06:36.935Z,101429.75
2022-12-03T08:09:41.050Z,101424.69
2022-12-03T08:12:43.842Z,101432.91
2022-12-03T08:15:46.843Z,101426.72
2022-12-03T08:18:51.382Z,101424.91
2022-12-03T08:21:59.530Z,101433.56
2022-12-03T08:25:03.917Z,101435.28
2022-12-03T08:28:12.196Z,101435.38
2022-12-03T08:31:19.910Z,101433.38
2022-12-03T08:34:25.246Z,101441.88
2022-12-03T08:37:30.872Z,101448.69
2022-12-03T08:40:35.370Z,101443.28
2022-12-03T08:43:42.072Z,101447.94
2022-12-03T08:46:45.189Z,101446.72
2022-12-03T08:49:52.615Z,101444.31
2022-12-03T08:52:58.923Z,101439.84
2022-12-03T08:56:02.553Z,101437.00
2022-12-03T08:59:22.500Z,101447.56
2022-12-03T09:02:29.658Z,101435.19
2022-12-03T09:05:33.834Z,101438.72
2022-12-03T09:08:37.617Z,101432.63
2022-12-03T09:11:40.460Z,101431.84
2022-12-03T09:14:43.261Z,101427.44
2022-12-03T09:17:46.079Z,101419.94
2022-12-03T09:20:50.198Z,101427.84
2022-12-03T09:23:52.961Z,101433.38
2022-12-03T09:26:55.748Z,101436.03
2022-12-03T09:29:58.612Z,101429.66
2022-12-03T09:33:01.401Z,101436.78
2022-12-03T09:36:06.564Z,101433.38
2022-12-03T09:39:09.333Z,101434.94
2022-12-03T09:42:13.175Z,101433.75
2022-12-03T09:45:16.899Z,101432.59
2022-12-03T09:48:20.178Z,101426.72
2022-12-03T09:51:24.938Z,101422.53
2022-12-03T09:54:28.638Z,101427.38
2022-12-03T09:57:32.042Z,101427.75
2022-12-03T10:00:34.806Z,101429.66
2022-12-03T10:03:39.766Z,101424.53
2022-12-03T10:06:46.049Z,101427.47
2022-12-03T10:09:49.196Z,101432.28
2022-12-03T10:12:52.966Z,101429.91
2022-12-03T10:15:57.131Z,101426.75
2022-12-03T10:19:01.601Z,101424.38
2022-12-03T10:22:05.807Z,101427.41
2022-12-03T10:25:10.832Z,101421.41
2022-12-03T10:28:13.611Z,101426.72
2022-12-03T10:31:16.715Z,101418.34
2022-12-03T10:34:25.089Z,101425.59
2022-12-03T10:37:29.257Z,101423.78
2022-12-03T10:40:33.233Z,101419.56
2022-12-03T10:43:36.026Z,101419.75
2022-12-03T10:46:38.912Z,101412.91
2022-12-03T10:49:42.549Z,101416.50
2022-12-03T10:52:46.976Z,101415.91
2022-12-03T10:55:51.328Z,101416.88
2022-12-03T10:58:54.479Z,101411.91
2022-12-03T11:01:57.267Z,101418.19
2022-12-03T11:05:00.155Z,101416.72
2022-12-03T11:08:04.999Z,101411.50
2022-12-03T11:11:08.781Z,101425.09
2022-12-03T11:14:45.336Z,101421.59
2022-12-03T11:17:51.788Z,101427.47
2022-12-03T11:21:12.589Z,101423.69
2022-12-03T11:24:21.344Z,101431.13
2022-12-03T11:27:24.232Z,101427.34
2022-12-03T11:30:41.937Z,101425.09
2022-12-03T11:33:44.817Z,101439.66
2022-12-03T11:37:02.453Z,101436.44
2022-12-03T11:40:32.377Z,101436.25
2022-12-03T11:43:56.396Z,101435.91
2022-12-03T11:47:10.099Z,101443.59
2022-12-03T11:50:21.520Z,101438.25
2022-12-03T11:53:26.075Z,101443.16
2022-12-03T11:56:29.355Z,101448.50
2022-12-03T11:59:32.066Z,101443.81
2022-12-03T12:02:36.227Z,101440.19
2022-12-03T12:05:39.151Z,101453.34
2022-12-03T12:08:42.987Z,101446.72
2022-12-03T12:11:45.836Z,101451.38
2022-12-03T12:14:48.586Z,101454.88
2022-12-03T12:17:52.723Z,101466.34
2022-12-03T12:20:55.483Z,101456.53
2022-12-03T12:23:58.246Z,101469.84
2022-12-03T12:27:02.736Z,101466.03
2022-12-03T12:30:06.746Z,101468.03
2022-12-03T12:33:19.137Z,101458.88
2022-12-03T12:36:21.901Z,101466.78
2022-12-03T12:39:24.706Z,101461.44
2022-12-03T12:42:31.852Z,101462.34
2022-12-03T12:45:35.918Z,101481.38
2022-12-03T12:48:40.252Z,101479.09
2022-12-03T12:51:45.371Z,101481.44
2022-12-03T12:54:48.149Z,101477.94
2022-12-03T12:57:51.022Z,101486.03
2022-12-03T13:00:54.971Z,101478.88
2022-12-03T13:03:59.719Z,101471.94
2022-12-03T13:07:02.521Z,101473.94
2022-12-03T13:10:20.576Z,101478.03
2022-12-03T13:13:25.262Z,101483.19
2022-12-03T13:16:30.158Z,101479.66
2022-12-03T13:19:46.629Z,101492.91
2022-12-03T13:22:51.229Z,101482.13
2022-12-03T13:26:09.859Z,101485.66
2022-12-03T13:29:18.229Z,101483.28
2022-12-03T13:32:22.284Z,101484.63
2022-12-03T13:35:30.351Z,101481.56
2022-12-03T13:38:33.115Z,101481.75
2022-12-03T13:41:53.525Z,101481.75
2022-12-03T13:44:57.950Z,101487.84
2022-12-03T13:48:01.737Z,101494.31
2022-12-03T13:51:16.345Z,101490.63
2022-12-03T13:54:23.955Z,101490.13
2022-12-03T13:57:27.156Z,101498.38
2022-12-03T14:00:30.007Z,101502.66
2022-12-03T14:03:32.852Z,101508.59
2022-12-03T14:06:36.955Z,101503.91
2022-12-03T14:09:39.737Z,101516.00
2022-12-03T14:12:42.448Z,101519.94
2022-12-03T14:15:45.248Z,101527.28
2022-12-03T14:18:48.078Z,101522.63
2022-12-03T14:21:52.172Z,101520.75
2022-12-03T14:24:56.004Z,101518.78
2022-12-03T14:28:00.796Z,101523.22
2022-12-03T14:31:04.479Z,101515.38
2022-12-03T14:34:07.302Z,101515.53
2022-12-03T14:37:11.493Z,101511.34
2022-12-03T14:40:21.003Z,101511.50
2022-12-03T14:43:24.361Z,101517.13
2022-12-03T14:46:27.194Z,101514.72
2022-12-03T14:49:30.073Z,101513.13
2022-12-03T14:52:34.142Z,101520.31
2022-12-03T14:55:36.959Z,101519.41
2022-12-03T14:58:39.723Z,101526.34
2022-12-03T15:01:42.555Z,101533.06
2022-12-03T15:04:45.441Z,101536.69
2022-12-03T15:07:49.606Z,101534.28
2022-12-03T15:10:52.410Z,101541.56
2022-12-03T15:13:55.211Z,101542.00
2022-12-03T15:16:58.104Z,101549.31
2022-12-03T15:20:00.964Z,101556.59
2022-12-03T15:23:06.308Z,101557.47
2022-12-03T15:26:10.652Z,101559.69
2022-12-03T15:29:13.566Z,101565.53
2022-12-03T15:32:16.305Z,101571.19
2022-12-03T15:35:19.109Z,101567.44
2022-12-03T15:41:43.649Z,101573.38
2022-12-03T15:44:46.405Z,101576.00
2022-12-03T15:47:49.262Z,101574.97
2022-12-03T15:50:52.086Z,101576.38
2022-12-03T15:53:56.263Z,101580.47
2022-12-03T15:56:59.028Z,101595.50
2022-12-03T16:00:01.797Z,101583.59
2022-12-03T16:03:04.649Z,101588.13
2022-12-03T16:06:07.717Z,101591.66
2022-12-03T16:09:11.809Z,101591.31
2022-12-03T16:12:14.564Z,101592.06
2022-12-03T16:15:19.935Z,101586.16
2022-12-03T16:18:26.421Z,101593.22
2022-12-03T16:21:29.172Z,101594.06
2022-12-03T16:24:33.993Z,101599.28
2022-12-03T16:27:38.086Z,101611.41
2022-12-03T16:30:41.119Z,101609.00
2022-12-03T16:33:43.899Z,101608.00
2022-12-03T16:36:46.872Z,101605.03
2022-12-03T16:43:11.408Z,101611.41
2022-12-03T16:46:26.319Z,101621.03
2022-12-03T16:49:30.096Z,101627.59
2022-12-03T16:52:32.878Z,101619.31
2022-12-03T16:55:37.053Z,101622.84
2022-12-03T16:58:39.850Z,101624.94
2022-12-03T17:01:42.701Z,101628.94
2022-12-03T17:04:45.554Z,101631.69
2022-12-03T17:07:48.435Z,101632.53
2022-12-03T17:10:52.665Z,101629.13
2022-12-03T17:13:55.474Z,101630.81
2022-12-03T17:16:58.227Z,101640.28
2022-12-03T17:20:01.040Z,101638.50
2022-12-03T17:23:03.849Z,101631.22
2022-12-03T17:26:09.025Z,101648.19
2022-12-03T17:29:11.742Z,101646.31
2022-12-03T17:32:15.610Z,101642.88
2022-12-03T17:35:18.715Z,101649.06
2022-12-03T17:38:21.532Z,101654.88
2022-12-03T17:41:26.317Z,101658.69
2022-12-03T17:44:29.081Z,101660.03
2022-12-03T17:47:31.832Z,101666.78
2022-12-03T17:50:35.654Z,101666.47
2022-12-03T17:53:38.443Z,101659.19
2022-12-03T17:56:44.039Z,101661.16
2022-12-03T17:59:46.803Z,101661.00
2022-12-03T18:02:49.611Z,101674.47
2022-12-03T18:05:52.446Z,101668.41
2022-12-03T18:08:55.261Z,101672.56
2022-12-03T18:11:59.663Z,101669.16
2022-12-03T18:15:02.474Z,101677.34
2022-12-03T18:18:05.416Z,101677.00
2022-12-03T18:21:08.368Z,101673.53
2022-12-03T18:24:11.400Z,101669.16
2022-12-03T18:27:15.678Z,101672.50
2022-12-03T18:30:18.485Z,101669.06
2022-12-03T18:33:21.516Z,101680.56
2022-12-03T18:36:26.167Z,101680.50
2022-12-03T18:39:31.878Z,101683.25
2022-12-03T18:42:35.973Z,101683.09
2022-12-03T18:45:40.137Z,101688.50
2022-12-03T18:48:45.588Z,101681.53
2022-12-03T18:51:48.954Z,101684.78
2022-12-03T18:54:52.582Z,101687.66
2022-12-03T18:57:56.774Z,101687.56
2022-12-03T19:00:59.889Z,101700.78
2022-12-03T19:04:02.767Z,101690.13
2022-12-03T19:07:06.749Z,101695.47
2022-12-03T19:10:10.299Z,101701.56
2022-12-03T19:13:14.411Z,101702.69
2022-12-03T19:16:17.513Z,101704.31
2022-12-03T19:19:20.328Z,101714.13
2022-12-03T19:22:23.400Z,101713.66
2022-12-03T19:25:28.512Z,101712.56
2022-12-03T19:28:32.663Z,101704.91
2022-12-03T19:31:35.540Z,101717.50
2022-12-03T19:34:38.418Z,101718.16
2022-12-03T19:37:41.235Z,101716.53
2022-12-03T19:40:44.041Z,101715.25
2022-12-03T19:43:51.254Z,101716.53
2022-12-03T19:46:56.583Z,101715.06
2022-12-03T19:49:59.367Z,101722.06
2022-12-03T19:53:02.168Z,101714.69
2022-12-03T19:56:07.332Z,101726.63
2022-12-03T19:59:12.390Z,101725.16
2022-12-03T20:02:15.218Z,101728.19
2022-12-03T20:05:18.161Z,101736.41
2022-12-03T20:08:20.910Z,101746.41
2022-12-03T20:11:24.670Z,101740.97
2022-12-03T20:14:29.376Z,101734.47
2022-12-03T20:17:32.467Z,101740.56
2022-12-03T20:20:35.197Z,101736.75
2022-12-03T20:23:38.050Z,101745.03
2022-12-03T20:26:40.760Z,101741.53
2022-12-03T20:29:44.933Z,101748.41
2022-12-03T20:32:48.709Z,101745.75
2022-12-03T20:35:52.656Z,101742.13
2022-12-03T20:38:56.015Z,101741.78
2022-12-03T20:41:58.812Z,101741.19
2022-12-03T20:45:02.977Z,101747.16
2022-12-03T20:48:05.866Z,101749.78
2022-12-03T20:51:10.203Z,101749.06
2022-12-03T20:54:12.904Z,101757.69
2022-12-03T20:57:15.719Z,101759.41
2022-12-03T21:00:20.313Z,101752.34
2022-12-03T21:03:23.463Z,101751.03
2022-12-03T21:06:27.035Z,101761.19
2022-12-03T21:09:29.854Z,101760.22
2022-12-03T21:12:32.599Z,101758.59
2022-12-03T21:15:36.773Z,101769.63
2022-12-03T21:18:39.943Z,101760.00
2022-12-03T21:21:42.737Z,101758.78
2022-12-03T21:24:45.539Z,101760.75
2022-12-03T21:27:48.262Z,101758.09
2022-12-03T21:30:52.476Z,101761.38
2022-12-03T21:33:55.768Z,101747.44
2022-12-03T21:36:58.498Z,101754.56
2022-12-03T21:40:01.282Z,101752.56
2022-12-03T21:43:04.092Z,101757.13
2022-12-03T21:47:12.281Z,101758.78
2022-12-03T21:49:31.767Z,101761.53
2022-12-03T21:52:35.016Z,101761.53
2022-12-03T21:55:39.240Z,101768.41
2022-12-03T21:58:42.020Z,101766.09
2022-12-03T22:01:47.536Z,101765.84
2022-12-03T22:04:50.858Z,101773.66
2022-12-03T22:07:53.678Z,101772.13
2022-12-03T22:10:56.492Z,101775.38
2022-12-03T22:13:59.308Z,101784.56
2022-12-03T22:17:03.549Z,101772.19
2022-12-03T22:20:07.041Z,101770.97
2022-12-03T22:23:09.798Z,101768.75
2022-12-03T22:26:13.645Z,101764.13
2022-12-03T22:29:16.406Z,101758.69
2022-12-03T22:32:20.543Z,101757.91
2022-12-03T22:35:23.275Z,101756.03
2022-12-03T22:38:26.382Z,101758.50
2022-12-03T22:41:29.153Z,101754.13
2022-12-03T22:44:32.066Z,101754.63
2022-12-03T22:47:36.215Z,101762.13
2022-12-03T22:50:42.184Z,101758.50
2022-12-03T22:53:44.992Z,101768.22
2022-12-03T22:56:49.771Z,101769.16
2022-12-03T22:59:52.659Z,101771.69
2022-12-03T23:02:57.122Z,101772.34
2022-12-03T23:06:00.022Z,101767.38
2022-12-03T23:09:03.227Z,101776.22
2022-12-03T23:12:07.503Z,101779.75
2022-12-03T23:15:10.904Z,101772.69
2022-12-03T23:18:15.071Z,101781.50
2022-12-03T23:21:21.530Z,101775.38
2022-12-03T23:24:27.282Z,101777.00
2022-12-03T23:27:30.048Z,101776.22
2022-12-03T23:30:36.006Z,101781.56
2022-12-03T23:33:40.127Z,101781.66
2022-12-03T23:36:42.883Z,101783.28
2022-12-03T23:39:45.680Z,101788.03
2022-12-03T23:42:48.445Z,101781.66
2022-12-03T23:45:51.221Z,101795.06
2022-12-03T23:48:55.837Z,101800.56
2022-12-03T23:51:58.565Z,101789.75
2022-12-03T23:55:01.324Z,101803.16
2022-12-03T23:58:04.139Z,101804.28
